createdAt,value
2022-12-18T00:01:44.440Z,81.74
2022-12-18T00:04:21.144Z,81.61
2022-12-18T00:06:47.615Z,81.35
2022-12-18T00:09:14.994Z,81.50
2022-12-18T00:11:41.434Z,81.83
2022-12-18T00:14:08.160Z,82.04
2022-12-18T00:16:36.359Z,81.50
2022-12-18T00:19:03.849Z,81.59
2022-12-18T00:21:31.457Z,81.79
2022-12-18T00:23:59.052Z,81.75
2022-12-18T00:26:27.842Z,81.96
2022-12-18T00:29:07.003Z,81.57
2022-12-18T00:31:34.030Z,81.74
2022-12-18T00:34:01.896Z,81.47
2022-12-18T00:36:31.702Z,81.50
2022-12-18T00:38:59.349Z,81.73
2022-12-18T00:41:44.525Z,81.46
2022-12-18T00:44:13.470Z,81.10
2022-12-18T00:46:40.219Z,81.14
2022-12-18T00:49:07.819Z,81.04
2022-12-18T00:51:35.259Z,81.14
2022-12-18T00:54:02.260Z,81.05
2022-12-18T00:56:28.743Z,80.94
2022-12-18T00:58:55.231Z,81.04
2022-12-18T01:01:22.206Z,80.99
2022-12-18T01:03:49.003Z,81.34
2022-12-18T01:06:17.200Z,81.17
2022-12-18T01:08:44.841Z,80.68
2022-12-18T01:11:13.686Z,80.89
2022-12-18T01:13:42.023Z,80.64
2022-12-18T01:16:09.965Z,80.91
2022-12-18T01:18:36.718Z,80.92
2022-12-18T01:21:07.740Z,80.91
2022-12-18T01:23:37.344Z,80.96
2022-12-18T01:26:08.449Z,81.03
2022-12-18T01:28:36.122Z,80.80
2022-12-18T01:31:24.421Z,80.59
2022-12-18T01:33:52.013Z,80.95
2022-12-18T01:36:24.973Z,80.72
2022-12-18T01:38:52.443Z,80.71
2022-12-18T01:41:22.745Z,80.77
2022-12-18T01:43:53.464Z,80.78
2022-12-18T01:46:22.543Z,80.64
2022-12-18T01:48:54.810Z,80.55
2022-12-18T01:51:21.433Z,81.00
2022-12-18T01:53:48.762Z,80.86
2022-12-18T01:56:17.330Z,80.73
2022-12-18T01:58:49.276Z,80.71
2022-12-18T02:01:16.101Z,80.96
2022-12-18T02:03:44.170Z,80.67
2022-12-18T02:06:24.969Z,81.09
2022-12-18T02:09:18.704Z,80.55
2022-12-18T02:11:54.164Z,81.01
2022-12-18T02:14:38.490Z,81.10
2022-12-18T02:17:09.549Z,80.90
2022-12-18T02:20:16.213Z,81.02
2022-12-18T02:23:15.868Z,80.59
2022-12-18T02:26:08.868Z,80.74
2022-12-18T02:28:56.747Z,81.20
2022-12-18T02:31:27.503Z,80.76
2022-12-18T02:33:57.600Z,80.81
2022-12-18T02:36:24.518Z,80.58
2022-12-18T02:38:54.642Z,80.75
2022-12-18T02:41:25.305Z,80.71
2022-12-18T02:44:02.432Z,80.66
2022-12-18T02:46:37.916Z,80.83
2022-12-18T02:49:25.507Z,80.53
2022-12-18T02:51:55.506Z,81.06
2022-12-18T02:54:37.515Z,80.89
2022-12-18T02:57:14.372Z,80.80
2022-12-18T02:59:47.433Z,80.65
2022-12-18T03:02:23.746Z,80.73
2022-12-18T03:05:13.345Z,80.89
2022-12-18T03:08:03.949Z,80.56
2022-12-18T03:10:50.601Z,80.86
2022-12-18T03:13:34.650Z,80.67
2022-12-18T03:16:03.562Z,81.05
2022-12-18T03:18:58.236Z,80.98
2022-12-18T03:21:31.037Z,80.93
2022-12-18T03:23:58.862Z,80.67
2022-12-18T03:26:27.662Z,80.77
2022-12-18T03:29:01.081Z,80.86
2022-12-18T03:31:30.404Z,80.69
2022-12-18T03:34:03.178Z,80.76
2022-12-18T03:36:38.767Z,80.86
2022-12-18T03:39:05.772Z,80.88
2022-12-18T03:41:46.261Z,80.58
2022-12-18T03:44:28.048Z,80.69
2022-12-18T03:47:32.632Z,80.41
2022-12-18T03:50:16.689Z,80.48
2022-12-18T03:52:50.569Z,80.77
2022-12-18T03:55:18.949Z,80.83
2022-12-18T03:57:49.058Z,80.62
2022-12-18T04:00:17.702Z,80.90
2022-12-18T04:02:57.662Z,80.87
2022-12-18T04:05:34.250Z,80.69
2022-12-18T04:08:02.106Z,80.71
2022-12-18T04:10:29.069Z,81.12
2022-12-18T04:12:59.149Z,80.95
2022-12-18T04:15:27.026Z,80.69
2022-12-18T04:17:53.533Z,80.94
2022-12-18T04:20:23.323Z,80.82
2022-12-18T04:22:50.270Z,80.81
2022-12-18T04:25:19.287Z,80.65
2022-12-18T04:28:05.419Z,80.86
2022-12-18T04:30:33.307Z,80.58
2022-12-18T04:32:59.887Z,80.54
2022-12-18T04:35:27.295Z,80.61
2022-12-18T04:37:53.782Z,79.98
2022-12-18T04:40:20.320Z,80.68
2022-12-18T04:42:48.466Z,80.80
2022-12-18T04:45:14.900Z,80.69
2022-12-18T04:47:41.391Z,80.76
2022-12-18T04:50:08.265Z,80.71
2022-12-18T04:52:34.696Z,80.88
2022-12-18T04:55:01.163Z,80.60
2022-12-18T04:57:27.683Z,80.66
2022-12-18T04:59:54.153Z,80.51
2022-12-18T05:02:20.711Z,80.51
2022-12-18T05:04:47.234Z,80.40
2022-12-18T05:07:13.719Z,80.73
2022-12-18T05:09:40.172Z,80.21
2022-12-18T05:12:06.693Z,80.47
2022-12-18T05:14:33.149Z,80.54
2022-12-18T05:17:01.236Z,80.20
2022-12-18T05:19:27.951Z,80.25
2022-12-18T05:21:54.519Z,80.17
2022-12-18T05:24:21.008Z,79.93
2022-12-18T05:26:47.495Z,80.21
2022-12-18T05:29:14.085Z,80.37
2022-12-18T05:31:41.118Z,80.41
2022-12-18T05:34:09.408Z,80.28
2022-12-18T05:36:37.208Z,80.36
2022-12-18T05:39:04.032Z,80.23
2022-12-18T05:41:30.965Z,80.37
2022-12-18T05:43:57.540Z,80.29
2022-12-18T05:46:25.087Z,80.30
2022-12-18T05:48:51.761Z,80.33
2022-12-18T05:51:20.615Z,80.12
2022-12-18T05:53:47.702Z,80.38
2022-12-18T05:56:16.190Z,80.29
2022-12-18T05:58:42.993Z,80.40
2022-12-18T06:01:15.129Z,80.58
2022-12-18T06:03:42.150Z,80.67
2022-12-18T06:06:21.158Z,80.67
2022-12-18T06:08:47.894Z,80.61
2022-12-18T06:11:17.912Z,80.22
2022-12-18T06:13:44.352Z,80.44
2022-12-18T06:16:11.462Z,80.16
2022-12-18T06:18:38.046Z,79.93
2022-12-18T06:21:04.518Z,80.23
2022-12-18T06:23:31.115Z,80.32
2022-12-18T06:25:57.551Z,80.21
2022-12-18T06:28:24.197Z,80.01
2022-12-18T06:30:51.198Z,80.23
2022-12-18T06:33:17.877Z,80.55
2022-12-18T06:35:44.337Z,80.43
2022-12-18T06:38:10.771Z,80.14
2022-12-18T06:40:39.065Z,80.36
2022-12-18T06:43:06.158Z,80.26
2022-12-18T06:45:32.657Z,80.06
2022-12-18T06:47:59.112Z,80.31
2022-12-18T06:50:25.728Z,80.03
2022-12-18T06:52:52.257Z,80.14
2022-12-18T06:55:18.891Z,79.85
2022-12-18T06:57:45.402Z,80.12
2022-12-18T07:00:12.126Z,80.20
2022-12-18T07:02:38.677Z,80.37
2022-12-18T07:05:10.484Z,80.16
2022-12-18T07:07:37.590Z,79.87
2022-12-18T07:10:04.669Z,80.19
2022-12-18T07:12:31.126Z,80.43
2022-12-18T07:14:57.583Z,80.25
2022-12-18T07:17:25.151Z,80.15
2022-12-18T07:19:51.632Z,80.13
2022-12-18T07:22:18.168Z,79.95
2022-12-18T07:24:44.641Z,80.15
2022-12-18T07:27:11.025Z,80.08
2022-12-18T07:29:37.514Z,80.20
2022-12-18T07:32:04.922Z,79.61
2022-12-18T07:34:31.427Z,79.78
2022-12-18T07:36:58.950Z,79.94
2022-12-18T07:39:25.463Z,79.92
2022-12-18T07:42:11.974Z,79.85
2022-12-18T07:44:40.179Z,79.85
2022-12-18T07:47:11.776Z,80.07
2022-12-18T07:49:38.819Z,79.89
2022-12-18T07:52:05.321Z,79.59
2022-12-18T07:54:31.941Z,79.62
2022-12-18T07:56:58.339Z,79.60
2022-12-18T07:59:24.816Z,79.52
2022-12-18T08:01:51.273Z,79.62
2022-12-18T08:04:18.045Z,79.55
2022-12-18T08:06:47.752Z,79.10
2022-12-18T08:09:15.164Z,78.90
2022-12-18T08:11:41.582Z,79.04
2022-12-18T08:14:08.009Z,79.03
2022-12-18T08:16:34.504Z,78.88
2022-12-18T08:19:00.957Z,78.88
2022-12-18T08:21:29.335Z,79.06
2022-12-18T08:23:58.100Z,78.87
2022-12-18T08:26:26.111Z,79.41
2022-12-18T08:28:54.173Z,78.94
2022-12-18T08:31:21.018Z,79.05
2022-12-18T08:33:50.865Z,79.64
2022-12-18T08:36:17.413Z,79.50
2022-12-18T08:38:43.950Z,79.30
2022-12-18T08:41:12.563Z,79.74
2022-12-18T08:43:57.632Z,79.62
2022-12-18T08:46:26.231Z,79.60
2022-12-18T08:48:53.124Z,79.33
2022-12-18T08:51:20.546Z,79.51
2022-12-18T08:53:47.356Z,79.39
2022-12-18T08:56:15.200Z,79.01
2022-12-18T08:58:42.395Z,79.05
2022-12-18T09:01:10.793Z,79.01
2022-12-18T09:03:37.610Z,78.78
2022-12-18T09:06:04.715Z,79.21
2022-12-18T09:08:31.147Z,79.15
2022-12-18T09:11:00.108Z,78.95
2022-12-18T09:13:26.558Z,79.21
2022-12-18T09:15:55.038Z,79.10
2022-12-18T09:18:22.558Z,78.94
2022-12-18T09:20:49.007Z,78.61
2022-12-18T09:23:15.588Z,78.79
2022-12-18T09:25:42.172Z,78.63
2022-12-18T09:28:19.093Z,78.65
2022-12-18T09:30:50.358Z,78.65
2022-12-18T09:33:17.677Z,79.02
2022-12-18T09:35:45.105Z,79.24
2022-12-18T09:38:18.739Z,79.00
2022-12-18T09:40:59.713Z,78.72
2022-12-18T09:43:34.035Z,78.98
2022-12-18T09:46:03.621Z,78.85
2022-12-18T09:48:33.657Z,79.14
2022-12-18T09:51:05.227Z,79.61
2022-12-18T09:53:34.188Z,79.53
2022-12-18T09:56:01.477Z,79.29
2022-12-18T09:58:32.109Z,79.92
2022-12-18T10:00:58.616Z,79.86
2022-12-18T10:03:25.273Z,79.78
2022-12-18T10:05:58.173Z,79.93
2022-12-18T10:08:30.221Z,79.35
2022-12-18T10:11:23.098Z,79.60
2022-12-18T10:14:22.030Z,79.77
2022-12-18T10:16:51.896Z,79.66
2022-12-18T10:19:50.032Z,80.05
2022-12-18T10:22:37.796Z,79.69
2022-12-18T10:25:28.736Z,79.96
2022-12-18T10:28:01.362Z,79.77
2022-12-18T10:30:28.396Z,80.23
2022-12-18T10:32:55.186Z,80.42
2022-12-18T10:35:27.611Z,79.90
2022-12-18T10:38:02.036Z,80.84
2022-12-18T10:40:28.576Z,80.24
2022-12-18T10:43:13.286Z,80.80
2022-12-18T10:45:40.624Z,80.20
2022-12-18T10:48:22.250Z,80.44
2022-12-18T10:53:38.014Z,80.94
2022-12-18T10:56:06.081Z,81.13
2022-12-18T10:58:37.649Z,81.06
2022-12-18T11:01:07.310Z,80.64
2022-12-18T11:03:42.496Z,80.94
2022-12-18T11:06:11.955Z,80.86
2022-12-18T11:08:39.301Z,80.99
2022-12-18T11:11:17.335Z,81.25
2022-12-18T11:13:54.094Z,80.79
2022-12-18T11:16:21.078Z,80.74
2022-12-18T11:18:47.576Z,80.72
2022-12-18T11:21:15.521Z,80.81
2022-12-18T11:23:50.466Z,81.07
2022-12-18T11:26:17.825Z,80.95
2022-12-18T11:28:51.737Z,80.79
2022-12-18T11:31:25.599Z,80.93
2022-12-18T11:34:28.084Z,81.59
2022-12-18T11:36:49.156Z,81.43
2022-12-18T11:39:36.264Z,81.42
2022-12-18T11:42:12.297Z,81.12
2022-12-18T11:44:43.592Z,81.58
2022-12-18T11:47:15.170Z,81.66
2022-12-18T11:49:42.315Z,82.04
2022-12-18T11:52:22.303Z,82.04
2022-12-18T11:54:53.752Z,81.63
2022-12-18T11:57:39.314Z,81.90
2022-12-18T12:00:11.723Z,81.59
2022-12-18T12:02:58.111Z,81.75
2022-12-18T12:05:52.064Z,81.42
2022-12-18T12:08:36.139Z,81.28
2022-12-18T12:11:12.125Z,81.75
2022-12-18T12:13:44.895Z,81.42
2022-12-18T12:16:21.417Z,81.58
2022-12-18T12:18:57.720Z,81.71
2022-12-18T12:21:53.506Z,81.63
2022-12-18T12:24:49.118Z,81.34
2022-12-18T12:27:33.503Z,81.41
2022-12-18T12:30:21.633Z,81.43
2022-12-18T12:33:02.540Z,81.15
2022-12-18T12:35:35.521Z,81.55
2022-12-18T12:38:05.901Z,81.51
2022-12-18T12:40:55.319Z,81.47
2022-12-18T12:43:46.041Z,81.16
2022-12-18T12:46:18.063Z,81.29
2022-12-18T12:48:51.085Z,81.37
2022-12-18T12:51:21.306Z,81.29
2022-12-18T12:53:48.992Z,80.83
2022-12-18T12:56:20.131Z,81.43
2022-12-18T12:58:58.385Z,81.21
2022-12-18T13:01:40.894Z,80.92
2022-12-18T13:04:16.419Z,81.32
2022-12-18T13:07:01.072Z,81.42
2022-12-18T13:09:37.939Z,81.31
2022-12-18T13:12:28.004Z,81.90
2022-12-18T13:15:14.013Z,81.44
2022-12-18T13:17:40.502Z,81.44
2022-12-18T13:20:11.260Z,81.58
2022-12-18T13:22:43.528Z,81.91
2022-12-18T13:25:31.040Z,81.88
2022-12-18T13:28:03.690Z,81.95
2022-12-18T13:30:33.018Z,82.32
2022-12-18T13:33:14.794Z,82.36
2022-12-18T13:35:47.033Z,82.29
2022-12-18T13:38:21.543Z,81.93
2022-12-18T13:40:51.196Z,81.99
2022-12-18T13:43:20.702Z,81.97
2022-12-18T13:46:22.044Z,82.16
2022-12-18T13:48:56.456Z,81.51
2022-12-18T13:51:24.104Z,81.06
2022-12-18T13:53:55.664Z,81.30
2022-12-18T13:56:25.460Z,81.75
2022-12-18T13:59:12.847Z,81.44
2022-12-18T14:01:48.028Z,81.41
2022-12-18T14:04:19.898Z,81.73
2022-12-18T14:06:47.659Z,82.23
2022-12-18T14:09:20.351Z,81.82
2022-12-18T14:11:49.595Z,81.77
2022-12-18T14:14:18.051Z,81.26
2022-12-18T14:16:44.893Z,81.65
2022-12-18T14:19:17.719Z,82.05
2022-12-18T14:21:51.076Z,81.79
2022-12-18T14:24:20.150Z,81.93
2022-12-18T14:26:47.734Z,81.52
2022-12-18T14:29:30.948Z,81.78
2022-12-18T14:32:19.997Z,82.06
2022-12-18T14:34:54.734Z,81.82
2022-12-18T14:37:23.182Z,81.73
2022-12-18T14:39:55.074Z,82.04
2022-12-18T14:42:21.612Z,82.10
2022-12-18T14:45:12.934Z,82.38
2022-12-18T14:47:36.542Z,82.32
2022-12-18T14:50:03.167Z,82.12
2022-12-18T14:52:32.536Z,81.94
2022-12-18T14:54:58.989Z,81.97
2022-12-18T14:57:27.438Z,82.23
2022-12-18T14:59:53.962Z,81.94
2022-12-18T15:02:26.766Z,81.97
2022-12-18T15:05:12.776Z,81.67
2022-12-18T15:07:44.755Z,82.01
2022-12-18T15:10:14.678Z,81.63
2022-12-18T15:12:45.260Z,81.98
2022-12-18T15:15:34.007Z,81.49
2022-12-18T15:18:09.724Z,81.90
2022-12-18T15:20:54.027Z,81.60
2022-12-18T15:23:23.705Z,81.55
2022-12-18T15:25:57.717Z,81.87
2022-12-18T15:28:26.774Z,81.61
2022-12-18T15:31:10.652Z,81.71
2022-12-18T15:33:42.757Z,81.63
2022-12-18T15:36:16.014Z,82.11
2022-12-18T15:38:48.840Z,81.86
2022-12-18T15:41:21.448Z,81.72
2022-12-18T15:43:52.200Z,81.50
2022-12-18T15:46:24.062Z,81.90
2022-12-18T15:49:01.379Z,81.76
2022-12-18T15:51:36.841Z,81.88
2022-12-18T15:54:05.952Z,81.73
2022-12-18T15:56:51.123Z,81.79
2022-12-18T15:59:19.398Z,81.44
2022-12-18T16:01:50.707Z,81.54
2022-12-18T16:04:22.903Z,81.82
2022-12-18T16:09:36.814Z,82.23
2022-12-18T16:12:03.780Z,82.30
2022-12-18T16:14:30.901Z,81.96
2022-12-18T16:17:06.783Z,82.15
2022-12-18T16:19:33.177Z,82.21
2022-12-18T16:21:59.882Z,82.08
2022-12-18T16:24:32.137Z,82.13
2022-12-18T16:27:00.617Z,82.36
2022-12-18T16:29:28.865Z,82.25
2022-12-18T16:31:59.417Z,82.40
2022-12-18T16:34:29.544Z,82.17
2022-12-18T16:37:05.747Z,82.08
2022-12-18T16:39:36.371Z,82.18
2022-12-18T16:42:05.700Z,82.53
2022-12-18T16:44:33.987Z,82.35
2022-12-18T16:47:02.789Z,82.53
2022-12-18T16:49:29.646Z,82.65
2022-12-18T16:51:56.236Z,82.25
2022-12-18T16:54:22.667Z,82.84
2022-12-18T16:56:51.365Z,82.82
2022-12-18T16:59:17.964Z,82.55
2022-12-18T17:01:44.691Z,82.76
2022-12-18T17:04:11.225Z,83.03
2022-12-18T17:06:43.305Z,83.05
2022-12-18T17:09:15.781Z,82.89
2022-12-18T17:11:42.273Z,82.96
2022-12-18T17:14:12.247Z,82.94
2022-12-18T17:16:38.706Z,83.28
2022-12-18T17:19:08.793Z,83.04
2022-12-18T17:21:38.738Z,82.97
2022-12-18T17:24:06.912Z,83.17
2022-12-18T17:26:33.478Z,83.28
2022-12-18T17:29:00.010Z,82.98
2022-12-18T17:31:28.913Z,83.06
2022-12-18T17:33:55.546Z,83.14
2022-12-18T17:36:22.801Z,83.21
2022-12-18T17:38:53.811Z,83.28
2022-12-18T17:41:21.114Z,83.44
2022-12-18T17:43:51.995Z,83.38
2022-12-18T17:46:18.572Z,83.40
2022-12-18T17:48:45.048Z,83.62
2022-12-18T17:51:11.932Z,83.83
2022-12-18T17:53:39.552Z,83.78
2022-12-18T17:56:08.031Z,83.81
2022-12-18T17:58:36.735Z,83.61
2022-12-18T18:01:04.782Z,83.90
2022-12-18T18:03:33.002Z,84.01
2022-12-18T18:06:00.783Z,83.99
2022-12-18T18:08:28.343Z,83.95
2022-12-18T18:10:55.439Z,84.16
2022-12-18T18:13:46.818Z,84.13
2022-12-18T18:16:13.835Z,84.17
2022-12-18T18:18:40.433Z,84.16
2022-12-18T18:21:08.485Z,84.37
2022-12-18T18:23:35.730Z,83.99
2022-12-18T18:26:06.505Z,84.30
2022-12-18T18:28:33.835Z,84.25
2022-12-18T18:31:08.185Z,84.07
2022-12-18T18:33:34.710Z,84.52
2022-12-18T18:36:01.197Z,84.50
2022-12-18T18:38:29.140Z,84.40
2022-12-18T18:41:03.216Z,84.50
2022-12-18T18:43:30.044Z,84.35
2022-12-18T18:45:57.499Z,84.27
2022-12-18T18:48:24.432Z,84.40
2022-12-18T18:50:59.168Z,84.62
2022-12-18T18:53:25.879Z,84.53
2022-12-18T18:56:26.135Z,84.63
2022-12-18T18:58:38.983Z,84.70
2022-12-18T19:01:08.327Z,84.46
2022-12-18T19:03:35.856Z,84.51
2022-12-18T19:06:02.371Z,84.52
2022-12-18T19:08:31.438Z,84.22
2022-12-18T19:10:59.660Z,84.52
2022-12-18T19:13:29.328Z,84.36
2022-12-18T19:16:16.070Z,84.24
2022-12-18T19:18:43.163Z,84.50
2022-12-18T19:21:10.847Z,84.28
2022-12-18T19:23:37.454Z,84.11
2022-12-18T19:26:26.981Z,84.22
2022-12-18T19:28:52.281Z,84.15
2022-12-18T19:31:24.351Z,84.10
2022-12-18T19:33:51.942Z,84.34
2022-12-18T19:36:29.180Z,84.30
2022-12-18T19:38:57.651Z,84.35
2022-12-18T19:41:25.621Z,84.25
2022-12-18T19:43:54.542Z,84.46
2022-12-18T19:46:23.867Z,84.48
2022-12-18T19:48:50.464Z,84.27
2022-12-18T19:51:20.109Z,84.52
2022-12-18T19:53:47.357Z,84.49
2022-12-18T19:56:16.883Z,84.37
2022-12-18T19:58:44.810Z,84.53
2022-12-18T20:01:16.513Z,84.35
2022-12-18T20:03:44.598Z,84.83
2022-12-18T20:06:28.262Z,84.52
2022-12-18T20:09:00.379Z,84.72
2022-12-18T20:11:30.456Z,84.66
2022-12-18T20:13:57.618Z,84.84
2022-12-18T20:16:27.156Z,84.91
2022-12-18T20:18:57.007Z,84.89
2022-12-18T20:21:25.146Z,84.88
2022-12-18T20:23:51.642Z,84.64
2022-12-18T20:26:18.359Z,85.08
2022-12-18T20:28:44.996Z,84.53
2022-12-18T20:31:13.491Z,84.58
2022-12-18T20:33:41.989Z,84.85
2022-12-18T20:36:12.986Z,84.82
2022-12-18T20:38:41.062Z,84.94
2022-12-18T20:41:10.799Z,84.90
2022-12-18T20:43:38.718Z,84.70
2022-12-18T20:46:07.606Z,85.04
2022-12-18T20:48:34.118Z,85.17
2022-12-18T20:51:03.933Z,85.10
2022-12-18T20:53:30.841Z,85.00
2022-12-18T20:55:57.360Z,85.01
2022-12-18T20:58:24.294Z,84.93
2022-12-18T21:01:04.916Z,84.91
2022-12-18T21:03:31.478Z,85.18
2022-12-18T21:05:57.977Z,85.08
2022-12-18T21:08:24.947Z,84.85
2022-12-18T21:10:51.475Z,84.79
2022-12-18T21:13:20.955Z,84.62
2022-12-18T21:15:47.399Z,84.83
2022-12-18T21:18:14.058Z,84.90
2022-12-18T21:20:40.865Z,84.75
2022-12-18T21:23:16.035Z,84.67
2022-12-18T21:25:44.349Z,84.58
2022-12-18T21:28:14.054Z,84.67
2022-12-18T21:30:40.840Z,84.72
2022-12-18T21:33:07.291Z,84.91
2022-12-18T21:35:33.697Z,84.88
2022-12-18T21:38:00.126Z,85.21
2022-12-18T21:40:29.123Z,85.10
2022-12-18T21:43:17.327Z,85.30
2022-12-18T21:45:44.348Z,85.13
2022-12-18T21:48:12.124Z,85.08
2022-12-18T21:50:38.581Z,85.15
2022-12-18T21:53:04.982Z,84.88
2022-12-18T21:55:31.432Z,84.86
2022-12-18T21:57:57.951Z,85.04
2022-12-18T22:00:24.399Z,85.23
2022-12-18T22:03:17.573Z,85.33
2022-12-18T22:05:37.306Z,85.19
2022-12-18T22:08:03.918Z,85.21
2022-12-18T22:10:30.498Z,85.08
2022-12-18T22:12:57.018Z,84.99
2022-12-18T22:15:23.488Z,85.34
2022-12-18T22:17:51.114Z,85.15
2022-12-18T22:20:20.012Z,85.10
2022-12-18T22:22:47.915Z,85.31
2022-12-18T22:25:14.520Z,85.05
2022-12-18T22:27:40.994Z,85.22
2022-12-18T22:30:08.917Z,85.43
2022-12-18T22:32:36.031Z,85.27
2022-12-18T22:35:10.368Z,84.90
2022-12-18T22:37:40.629Z,85.07
2022-12-18T22:40:07.653Z,84.82
2022-12-18T22:42:35.159Z,85.00
2022-12-18T22:45:01.579Z,84.91
2022-12-18T22:47:29.981Z,84.60
2022-12-18T22:49:57.705Z,84.47
2022-12-18T22:52:25.469Z,84.76
2022-12-18T22:54:54.198Z,84.50
2022-12-18T22:57:22.001Z,84.79
2022-12-18T22:59:49.730Z,84.53
2022-12-18T23:02:20.412Z,84.62
2022-12-18T23:04:47.613Z,84.40
2022-12-18T23:07:14.322Z,84.39
2022-12-18T23:09:40.736Z,84.30
2022-12-18T23:12:07.644Z,84.17
2022-12-18T23:14:34.083Z,84.17
2022-12-18T23:17:00.504Z,84.21
2022-12-18T23:19:26.937Z,84.31
2022-12-18T23:21:54.833Z,84.41
2022-12-18T23:24:23.533Z,84.40
2022-12-18T23:26:49.930Z,84.43
2022-12-18T23:29:16.417Z,84.41
2022-12-18T23:31:42.929Z,84.43
2022-12-18T23:34:11.841Z,84.69
2022-12-18T23:36:46.170Z,84.64
2022-12-18T23:39:18.805Z,84.59
2022-12-18T23:42:00.187Z,84.51
2022-12-18T23:44:26.936Z,84.48
2022-12-18T23:46:53.424Z,84.49
2022-12-18T23:49:19.945Z,84.87
2022-12-18T23:51:46.342Z,84.67
2022-12-18T23:54:12.747Z,84.98
2022-12-18T23:56:39.198Z,84.82
2022-12-18T23:59:05.596Z,84.74
